Neutral Bay, New South Wales

8:17 AM AEDT on February 14, 2016 (GMT +1100)
Thames st wharf Balmain | | Change Station
CLOSE
Current Station
Personal Weather Station
Location: Balmain, NEW SOUTH WALES
Elevation: 26 ft
Nearby Weather Stations

Elev 26 ft 33.86 °S, 151.19 °E | Updated 10 seconds ago

Clear
Clear
72.7 °F
Feels Like 74 °F
N
0.0
Wind Variable Wind from East
Gusts 0.0 mph

Today
High -- | Low -- °F
--% Chance of Precip.
Yesterday
High -- | Low -- °F
Precip. -- in
Pressure 29.77 in
Visibility -9999.0 miles
Clouds
Heat Index 74 °F
Dew Point 64 °F
Humidity 75%
Rainfall 0.00 in
Snow Depth Not available.
6:28 AM 7:49 PM
Waxing Crescent, 34% visible
METAR YSSY 132100Z 01008KT CAVOK 24/18 Q1008 NOSIG
Pressure 29.77 in
Visibility -9999.0 miles
Clouds
Heat Index 74 °F
Dew Point 64 °F
Humidity 75%
Rainfall 0.00 in
Snow Depth Not available.
6:28 AM 7:49 PM
Waxing Crescent, 34% visible
METAR YSSY 132100Z 01008KT CAVOK 24/18 Q1008 NOSIG

10-Day Weather Forecast

Almanac

Astronomy

Feb. 14, 2016 Rise Set
Actual Time
Civil Twilight
Nautical Twilight
Astronomical Twilight
Moon
Length of Visible Light
Length of Day
Tomorrow will be .
, % of the Moon is Illuminated

Today's Extremes

Country Highs Country Lows

Community

WunderPhotos

Upload Photos

1,892,670 photos uploaded!

WunderBlog® & News

Nearby

Air Quality

  Air Quality AQ Index Pollutant
Not available.

Snow Depth

Station Depth Elevation

Earthquake Activity

City Distance Mag. Time & Date
Minimum magnitude displayed is 2.5.

Coastal Water Temperatures

Place Temperature

Stations

Nearby Weather Stations

Station Location Temp. Windchill Dew Point Humidity Wind Precip. Elev Updated Type